createdAt,value
2023-03-02T00:02:18.303Z,27.50
2023-03-02T00:04:56.767Z,28.33
2023-03-02T00:07:35.077Z,28.13
2023-03-02T00:10:07.778Z,28.02
2023-03-02T00:12:39.651Z,26.60
2023-03-02T00:15:14.297Z,25.95
2023-03-02T00:17:46.360Z,26.80
2023-03-02T00:20:18.152Z,26.33
2023-03-02T00:22:49.987Z,27.10
2023-03-02T00:25:21.771Z,26.33
2023-03-02T00:27:57.602Z,26.02
2023-03-02T00:30:33.518Z,27.33
2023-03-02T00:35:41.159Z,26.02
2023-03-02T00:38:13.810Z,25.20
2023-03-02T00:40:46.972Z,25.48
2023-03-02T00:43:27.276Z,27.45
2023-03-02T00:45:59.123Z,26.65
2023-03-02T00:48:30.885Z,26.80
2023-03-02T00:51:02.639Z,27.05
2023-03-02T00:53:36.345Z,26.00
2023-03-02T00:56:09.723Z,27.50
2023-03-02T00:58:45.485Z,26.50
2023-03-02T01:01:18.748Z,28.15
2023-03-02T01:03:55.213Z,28.83
2023-03-02T01:06:27.174Z,28.50
2023-03-02T01:08:58.908Z,27.50
2023-03-02T01:11:30.743Z,28.60
2023-03-02T01:14:02.442Z,26.27
2023-03-02T01:16:36.636Z,27.90
2023-03-02T01:19:08.592Z,26.40
2023-03-02T01:21:41.685Z,25.55
2023-03-02T01:24:16.107Z,28.20
2023-03-02T01:26:47.922Z,25.90
2023-03-02T01:29:22.722Z,26.30
2023-03-02T01:34:26.592Z,25.63
2023-03-02T01:37:01.403Z,27.23
2023-03-02T01:39:35.296Z,27.38
2023-03-02T01:42:07.008Z,26.97
2023-03-02T01:44:46.341Z,25.80
2023-03-02T01:47:24.437Z,26.75
2023-03-02T01:50:26.424Z,26.58
2023-03-02T01:53:05.665Z,27.00
2023-03-02T01:55:41.328Z,27.10
2023-03-02T01:58:18.266Z,26.85
2023-03-02T02:00:54.896Z,27.40
2023-03-02T02:03:30.568Z,28.40
2023-03-02T02:06:18.147Z,26.08
2023-03-02T02:08:52.707Z,27.52
2023-03-02T02:11:26.021Z,28.15
2023-03-02T02:14:00.230Z,28.30
2023-03-02T02:16:34.210Z,27.05
2023-03-02T02:19:36.744Z,26.77
2023-03-02T02:22:10.724Z,26.75
2023-03-02T02:24:49.744Z,27.95
2023-03-02T02:27:22.617Z,27.08
2023-03-02T02:29:55.629Z,28.17
2023-03-02T02:32:31.633Z,27.55
2023-03-02T02:35:29.831Z,27.00
2023-03-02T02:38:05.671Z,27.67
2023-03-02T02:40:37.360Z,26.92
2023-03-02T02:43:15.202Z,27.85
2023-03-02T02:45:49.116Z,28.02
2023-03-02T02:48:24.266Z,28.67
2023-03-02T02:51:00.565Z,29.67
2023-03-02T02:53:58.648Z,28.75
2023-03-02T02:56:38.283Z,28.08
2023-03-02T02:59:24.124Z,27.17
2023-03-02T03:01:57.001Z,28.00
2023-03-02T03:04:33.858Z,27.50
2023-03-02T03:07:06.775Z,28.83
2023-03-02T03:09:40.174Z,27.83
2023-03-02T03:12:19.679Z,29.20
2023-03-02T03:14:53.011Z,29.02
2023-03-02T03:17:25.318Z,29.27
2023-03-02T03:20:10.830Z,29.27
2023-03-02T03:22:53.488Z,28.85
2023-03-02T03:25:27.715Z,27.83
2023-03-02T03:28:02.912Z,29.40
2023-03-02T03:30:35.050Z,27.85
2023-03-02T03:33:11.110Z,27.67
2023-03-02T03:35:44.416Z,27.92
2023-03-02T03:38:19.522Z,28.13
2023-03-02T03:40:52.399Z,28.67
2023-03-02T03:43:24.319Z,26.92
2023-03-02T03:45:58.793Z,25.90
2023-03-02T03:48:33.483Z,28.25
2023-03-02T03:51:12.846Z,29.13
2023-03-02T03:53:45.578Z,27.20
2023-03-02T03:56:17.882Z,28.58
2023-03-02T03:59:01.963Z,26.70
2023-03-02T04:01:47.427Z,27.45
2023-03-02T04:04:30.883Z,25.85
2023-03-02T04:07:05.870Z,27.02
2023-03-02T04:09:39.222Z,28.35
2023-03-02T04:12:14.010Z,27.15
2023-03-02T04:14:53.122Z,27.45
2023-03-02T04:17:24.937Z,27.08
2023-03-02T04:19:56.764Z,27.02
2023-03-02T04:22:28.578Z,27.60
2023-03-02T04:25:01.227Z,27.25
2023-03-02T04:27:34.031Z,27.75
2023-03-02T04:30:08.443Z,26.98
2023-03-02T04:32:40.530Z,27.67
2023-03-02T04:35:13.126Z,28.10
2023-03-02T04:37:48.404Z,27.17
2023-03-02T04:40:21.525Z,26.77
2023-03-02T04:42:58.767Z,26.23
2023-03-02T04:45:30.529Z,26.98
2023-03-02T04:48:05.546Z,29.40
2023-03-02T04:50:38.524Z,25.90
2023-03-02T04:53:12.082Z,27.80
2023-03-02T04:55:46.376Z,27.63
2023-03-02T04:58:18.194Z,26.30
2023-03-02T05:00:49.996Z,27.67
2023-03-02T05:03:21.712Z,27.30
2023-03-02T05:05:53.612Z,27.92
2023-03-02T05:08:28.140Z,27.98
2023-03-02T05:11:01.505Z,27.52
2023-03-02T05:13:34.293Z,26.35
2023-03-02T05:16:06.387Z,28.48
2023-03-02T05:18:39.284Z,29.38
2023-03-02T05:21:17.772Z,29.02
2023-03-02T05:23:49.547Z,27.90
2023-03-02T05:26:21.472Z,30.15
2023-03-02T05:28:54.150Z,28.85
2023-03-02T05:31:39.028Z,28.60
2023-03-02T05:34:21.137Z,28.83
2023-03-02T05:36:57.188Z,28.05
2023-03-02T05:39:28.954Z,28.80
2023-03-02T05:42:01.029Z,29.42
2023-03-02T05:44:32.955Z,28.02
2023-03-02T05:47:04.966Z,27.92
2023-03-02T05:49:39.478Z,27.27
2023-03-02T05:52:11.213Z,30.65
2023-03-02T05:54:42.940Z,29.48
2023-03-02T05:57:14.964Z,30.13
2023-03-02T05:59:47.792Z,30.77
2023-03-02T06:02:19.724Z,29.55
2023-03-02T06:04:54.028Z,29.30
2023-03-02T06:07:27.427Z,31.55
2023-03-02T06:09:59.162Z,28.83
2023-03-02T06:12:31.007Z,28.23
2023-03-02T06:15:04.888Z,28.42
2023-03-02T06:17:38.213Z,28.83
2023-03-02T06:20:15.778Z,29.30
2023-03-02T06:22:47.817Z,26.70
2023-03-02T06:25:24.199Z,27.58
2023-03-02T06:27:55.947Z,28.05
2023-03-02T06:30:28.690Z,28.55
2023-03-02T06:33:03.375Z,29.30
2023-03-02T06:35:35.295Z,29.77
2023-03-02T06:38:07.127Z,28.95
2023-03-02T06:40:41.922Z,28.20
2023-03-02T06:45:48.352Z,28.30
2023-03-02T06:48:24.463Z,28.38
2023-03-02T06:50:56.197Z,27.85
2023-03-02T06:53:31.629Z,28.80
2023-03-02T06:56:03.564Z,28.08
2023-03-02T06:58:38.442Z,28.13
2023-03-02T07:01:10.299Z,29.15
2023-03-02T07:03:43.361Z,28.70
2023-03-02T07:06:15.242Z,29.33
2023-03-02T07:08:47.076Z,28.30
2023-03-02T07:11:19.976Z,27.90
2023-03-02T07:13:54.495Z,28.48
2023-03-02T07:18:58.033Z,28.10
2023-03-02T07:21:34.161Z,28.45
2023-03-02T07:24:08.993Z,29.25
2023-03-02T07:26:40.724Z,29.02
2023-03-02T07:29:12.499Z,28.95
2023-03-02T07:31:44.437Z,28.02
2023-03-02T07:34:16.479Z,27.08
2023-03-02T07:36:49.608Z,29.30
2023-03-02T07:39:22.351Z,28.17
2023-03-02T07:41:58.195Z,28.08
2023-03-02T07:44:31.065Z,27.48
2023-03-02T07:47:04.760Z,26.30
2023-03-02T07:49:37.149Z,26.98
2023-03-02T07:52:08.883Z,27.70
2023-03-02T07:54:40.680Z,28.20
2023-03-02T07:57:16.080Z,28.63
2023-03-02T07:59:50.797Z,29.15
2023-03-02T08:02:22.606Z,28.40
2023-03-02T08:04:54.511Z,28.02
2023-03-02T08:07:27.632Z,29.13
2023-03-02T08:10:00.983Z,27.35
2023-03-02T08:12:32.851Z,28.33
2023-03-02T08:15:05.236Z,27.58
2023-03-02T08:17:37.158Z,27.60
2023-03-02T08:20:09.639Z,28.17
2023-03-02T08:22:41.350Z,28.75
2023-03-02T08:25:16.153Z,28.42
2023-03-02T08:27:48.129Z,28.80
2023-03-02T08:30:21.250Z,27.30
2023-03-02T08:32:53.005Z,26.02
2023-03-02T08:35:24.895Z,27.33
2023-03-02T08:37:56.656Z,26.90
2023-03-02T08:40:28.379Z,28.17
2023-03-02T08:43:00.366Z,28.10
2023-03-02T08:48:06.717Z,24.70
2023-03-02T08:50:38.546Z,25.40
2023-03-02T08:53:12.236Z,25.00
2023-03-02T08:55:44.015Z,24.90
2023-03-02T08:58:15.751Z,25.13
2023-03-02T09:00:47.664Z,24.20
2023-03-02T09:03:19.990Z,25.80
2023-03-02T09:05:54.950Z,25.38
2023-03-02T09:08:26.645Z,25.27
2023-03-02T09:11:00.676Z,24.58
2023-03-02T09:13:32.759Z,24.98
2023-03-02T09:16:05.644Z,25.58
2023-03-02T09:18:37.905Z,26.27
2023-03-02T09:21:12.922Z,25.85
2023-03-02T09:23:44.940Z,24.33
2023-03-02T09:26:16.841Z,25.77
2023-03-02T09:28:48.732Z,24.42
2023-03-02T09:31:20.689Z,24.73
2023-03-02T09:33:52.504Z,24.55
2023-03-02T09:36:26.071Z,23.20
2023-03-02T09:38:58.025Z,23.98
2023-03-02T09:41:41.572Z,24.45
2023-03-02T09:44:42.565Z,24.50
2023-03-02T09:47:34.594Z,25.48
2023-03-02T09:50:12.829Z,25.60
2023-03-02T09:52:49.074Z,23.58
2023-03-02T09:55:28.829Z,22.25
2023-03-02T09:58:02.973Z,23.45
2023-03-02T10:00:42.516Z,24.17
2023-03-02T10:03:39.070Z,21.92
2023-03-02T10:06:11.371Z,23.25
2023-03-02T10:08:44.950Z,22.37
2023-03-02T10:11:44.156Z,22.95
2023-03-02T10:14:31.415Z,22.05
2023-03-02T10:17:28.916Z,22.77
2023-03-02T10:20:05.028Z,23.52
2023-03-02T10:22:49.410Z,23.90
2023-03-02T10:25:42.760Z,22.33
2023-03-02T10:28:20.877Z,23.25
2023-03-02T10:31:05.455Z,22.80
2023-03-02T10:33:40.585Z,23.38
2023-03-02T10:36:23.940Z,23.15
2023-03-02T10:38:58.029Z,22.95
2023-03-02T10:41:47.207Z,24.00
2023-03-02T10:44:38.277Z,24.02
2023-03-02T10:47:23.616Z,23.30
2023-03-02T10:50:00.268Z,23.08
2023-03-02T10:52:32.809Z,23.20
2023-03-02T10:55:14.993Z,23.33
2023-03-02T10:57:59.235Z,23.80
2023-03-02T11:00:32.758Z,23.10
2023-03-02T11:03:20.470Z,20.75
2023-03-02T11:05:56.072Z,21.48
2023-03-02T11:08:28.888Z,20.65
2023-03-02T11:11:04.319Z,21.48
2023-03-02T11:13:39.664Z,21.40
2023-03-02T11:16:29.416Z,21.30
2023-03-02T11:19:08.494Z,20.65
2023-03-02T11:22:14.535Z,20.90
2023-03-02T11:24:54.016Z,21.50
2023-03-02T11:27:36.385Z,20.13
2023-03-02T11:30:22.772Z,21.52
2023-03-02T11:33:02.614Z,22.60
2023-03-02T11:35:43.502Z,20.73
2023-03-02T11:38:32.632Z,20.15
2023-03-02T11:41:14.496Z,20.25
2023-03-02T11:43:46.188Z,18.30
2023-03-02T11:46:26.532Z,18.92
2023-03-02T11:49:10.065Z,18.38
2023-03-02T11:51:58.600Z,18.25
2023-03-02T11:54:57.614Z,18.75
2023-03-02T11:57:34.240Z,18.80
2023-03-02T12:00:15.436Z,19.50
2023-03-02T12:02:59.079Z,18.50
2023-03-02T12:05:35.738Z,18.92
2023-03-02T12:08:19.718Z,19.42
2023-03-02T12:10:59.655Z,18.25
2023-03-02T12:13:43.864Z,15.57
2023-03-02T12:16:21.701Z,18.13
2023-03-02T12:18:54.188Z,18.27
2023-03-02T12:21:27.071Z,18.27
2023-03-02T12:24:04.079Z,16.75
2023-03-02T12:26:37.878Z,19.02
2023-03-02T12:29:13.617Z,18.83
2023-03-02T12:31:46.998Z,17.92
2023-03-02T12:34:35.810Z,18.48
2023-03-02T12:37:19.207Z,17.25
2023-03-02T12:40:11.498Z,17.67
2023-03-02T12:42:58.598Z,18.17
2023-03-02T12:45:45.464Z,18.58
2023-03-02T12:48:32.190Z,19.15
2023-03-02T12:51:05.222Z,17.63
2023-03-02T12:53:37.491Z,17.85
2023-03-02T12:56:22.389Z,17.83
2023-03-02T12:58:54.755Z,17.15
2023-03-02T13:01:29.839Z,18.90
2023-03-02T13:04:01.641Z,18.27
2023-03-02T13:06:39.031Z,19.23
2023-03-02T13:09:14.946Z,18.33
2023-03-02T13:11:49.973Z,17.83
2023-03-02T13:14:53.304Z,16.98
2023-03-02T13:17:31.250Z,19.45
2023-03-02T13:20:04.839Z,17.23
2023-03-02T13:22:36.954Z,17.73
2023-03-02T13:25:22.657Z,17.92
2023-03-02T13:28:07.624Z,16.15
2023-03-02T13:33:24.619Z,16.25
2023-03-02T13:35:57.278Z,16.20
2023-03-02T13:38:38.578Z,16.08
2023-03-02T13:41:25.287Z,15.73
2023-03-02T13:44:00.808Z,15.98
2023-03-02T13:46:36.647Z,15.52
2023-03-02T13:49:12.008Z,15.82
2023-03-02T13:51:47.269Z,15.68
2023-03-02T13:54:25.538Z,15.68
2023-03-02T13:57:00.693Z,16.10
2023-03-02T13:59:38.781Z,14.93
2023-03-02T14:02:25.684Z,15.63
2023-03-02T14:04:58.742Z,14.52
2023-03-02T14:07:30.573Z,15.60
2023-03-02T14:10:02.328Z,13.15
2023-03-02T14:12:40.308Z,14.25
2023-03-02T14:15:16.614Z,14.50
2023-03-02T14:17:49.319Z,14.63
2023-03-02T14:20:25.011Z,14.50
2023-03-02T14:22:56.734Z,13.85
2023-03-02T14:25:28.475Z,13.38
2023-03-02T14:28:03.578Z,14.15
2023-03-02T14:30:35.342Z,12.68
2023-03-02T14:33:15.955Z,13.23
2023-03-02T14:35:49.668Z,13.95
2023-03-02T14:38:28.396Z,13.88
2023-03-02T14:41:00.581Z,13.90
2023-03-02T14:43:36.534Z,13.55
2023-03-02T14:46:08.573Z,13.30
2023-03-02T14:48:41.724Z,12.65
2023-03-02T14:51:26.292Z,12.85
2023-03-02T14:54:04.455Z,13.10
2023-03-02T14:56:37.620Z,11.63
2023-03-02T14:59:14.016Z,12.20
2023-03-02T15:01:45.799Z,12.07
2023-03-02T15:04:17.614Z,12.45
2023-03-02T15:06:49.338Z,12.90
2023-03-02T15:09:21.062Z,12.32
2023-03-02T15:11:52.799Z,12.02
2023-03-02T15:14:24.617Z,11.90
2023-03-02T15:17:00.288Z,11.85
2023-03-02T15:19:33.217Z,11.38
2023-03-02T15:22:06.089Z,11.85
2023-03-02T15:24:37.809Z,11.90
2023-03-02T15:27:09.576Z,9.80
2023-03-02T15:29:45.939Z,11.23
2023-03-02T15:32:18.042Z,10.70
2023-03-02T15:34:49.897Z,10.32
2023-03-02T15:37:22.158Z,10.52
2023-03-02T15:39:55.367Z,10.18
2023-03-02T15:42:27.199Z,11.75
2023-03-02T15:44:59.590Z,10.05
2023-03-02T15:47:34.816Z,10.07
2023-03-02T15:50:06.954Z,11.27
2023-03-02T15:52:38.745Z,10.95
2023-03-02T15:55:17.342Z,10.90
2023-03-02T15:57:51.502Z,10.68
2023-03-02T16:00:23.770Z,9.77
2023-03-02T16:02:55.518Z,10.10
2023-03-02T16:05:27.286Z,10.30
2023-03-02T16:07:59.038Z,10.10
2023-03-02T16:10:32.044Z,10.98
2023-03-02T16:13:05.678Z,10.75
2023-03-02T16:15:42.044Z,11.10
2023-03-02T16:18:14.423Z,10.52
2023-03-02T16:20:46.150Z,10.90
2023-03-02T16:23:18.124Z,9.50
2023-03-02T16:25:51.489Z,10.30
2023-03-02T16:28:23.263Z,11.00
2023-03-02T16:31:03.691Z,9.70
2023-03-02T16:33:36.085Z,10.10
2023-03-02T16:36:09.115Z,9.98
2023-03-02T16:38:41.031Z,10.82
2023-03-02T16:41:16.930Z,10.18
2023-03-02T16:43:51.586Z,10.65
2023-03-02T16:46:25.844Z,11.00
2023-03-02T16:48:58.654Z,10.63
2023-03-02T16:51:30.640Z,10.77
2023-03-02T16:54:02.964Z,10.43
2023-03-02T16:56:34.814Z,11.48
2023-03-02T16:59:06.967Z,10.82
2023-03-02T17:01:38.845Z,10.80
2023-03-02T17:04:11.686Z,11.27
2023-03-02T17:06:59.781Z,10.50
2023-03-02T17:09:34.954Z,10.88
2023-03-02T17:14:40.094Z,11.05
2023-03-02T17:17:11.852Z,10.90
2023-03-02T17:19:44.001Z,10.90
2023-03-02T17:22:18.507Z,11.27
2023-03-02T17:24:50.628Z,10.65
2023-03-02T17:27:25.979Z,10.90
2023-03-02T17:29:57.861Z,12.57
2023-03-02T17:32:29.699Z,11.43
2023-03-02T17:35:10.475Z,12.25
2023-03-02T17:37:45.759Z,12.13
2023-03-02T17:40:18.674Z,12.35
2023-03-02T17:42:56.189Z,12.40
2023-03-02T17:45:34.173Z,11.48
2023-03-02T17:48:06.290Z,12.85
2023-03-02T17:50:38.067Z,11.65
2023-03-02T17:53:12.573Z,10.73
2023-03-02T17:55:44.403Z,10.38
2023-03-02T17:58:16.537Z,12.30
2023-03-02T18:00:48.241Z,11.73
2023-03-02T18:03:20.217Z,12.32
2023-03-02T18:05:52.036Z,12.75
2023-03-02T18:08:24.234Z,12.48
2023-03-02T18:10:58.745Z,12.07
2023-03-02T18:13:31.466Z,13.05
2023-03-02T18:16:06.990Z,13.18
2023-03-02T18:18:38.894Z,13.30
2023-03-02T18:21:10.674Z,13.00
2023-03-02T18:23:44.809Z,13.13
2023-03-02T18:26:17.105Z,14.63
2023-03-02T18:28:48.809Z,13.75
2023-03-02T18:31:23.899Z,13.98
2023-03-02T18:33:55.763Z,13.75
2023-03-02T18:36:27.825Z,12.77
2023-03-02T18:39:03.959Z,13.88
2023-03-02T18:41:35.664Z,12.75
2023-03-02T18:44:07.496Z,13.80
2023-03-02T18:46:39.365Z,14.50
2023-03-02T18:49:11.107Z,12.95
2023-03-02T18:51:43.332Z,13.50
2023-03-02T18:54:18.190Z,15.48
2023-03-02T18:56:52.066Z,14.68
2023-03-02T18:59:23.880Z,10.60
2023-03-02T19:01:55.945Z,13.43
2023-03-02T19:04:27.829Z,14.10
2023-03-02T19:07:00.819Z,13.32
2023-03-02T19:09:34.982Z,13.82
2023-03-02T19:12:09.431Z,13.45
2023-03-02T19:14:45.883Z,13.88
2023-03-02T19:17:18.636Z,14.48
2023-03-02T19:19:50.360Z,14.73
2023-03-02T19:22:22.099Z,14.52
2023-03-02T19:24:53.824Z,15.35
2023-03-02T19:27:26.957Z,15.43
2023-03-02T19:29:58.689Z,16.35
2023-03-02T19:32:30.601Z,16.23
2023-03-02T19:35:03.991Z,18.90
2023-03-02T19:37:35.688Z,16.92
2023-03-02T19:40:09.429Z,16.23
2023-03-02T19:42:41.844Z,15.90
2023-03-02T19:45:19.477Z,17.00
2023-03-02T19:47:51.531Z,17.58
2023-03-02T19:50:24.214Z,16.35
2023-03-02T19:52:58.372Z,16.43
2023-03-02T19:55:30.111Z,15.70
2023-03-02T19:58:02.524Z,22.33
2023-03-02T20:00:35.384Z,20.20
2023-03-02T20:03:09.813Z,21.77
2023-03-02T20:05:41.530Z,19.83
2023-03-02T20:08:13.289Z,20.48
2023-03-02T20:10:49.598Z,19.55
2023-03-02T20:13:21.590Z,19.88
2023-03-02T20:15:53.687Z,20.10
2023-03-02T20:18:26.903Z,21.40
2023-03-02T20:21:02.249Z,19.98
2023-03-02T20:23:34.548Z,19.95
2023-03-02T20:26:06.560Z,20.23
2023-03-02T20:28:38.473Z,20.45
2023-03-02T20:31:12.667Z,21.38
2023-03-02T20:33:50.459Z,21.20
2023-03-02T20:36:28.074Z,20.60
2023-03-02T20:39:15.192Z,21.98
2023-03-02T20:41:50.009Z,21.40
2023-03-02T20:44:23.516Z,22.23
2023-03-02T20:46:58.157Z,21.80
2023-03-02T20:49:34.334Z,22.33
2023-03-02T20:52:10.292Z,22.05
2023-03-02T20:54:43.617Z,22.02
2023-03-02T20:57:18.313Z,22.10
2023-03-02T20:59:50.337Z,22.23
2023-03-02T21:02:23.472Z,20.77
2023-03-02T21:04:55.386Z,21.23
2023-03-02T21:07:27.285Z,21.83
2023-03-02T21:09:59.002Z,21.73
2023-03-02T21:12:33.197Z,20.70
2023-03-02T21:15:05.839Z,20.90
2023-03-02T21:17:39.308Z,23.52
2023-03-02T21:20:16.029Z,22.02
2023-03-02T21:22:49.625Z,21.45
2023-03-02T21:25:23.701Z,22.97
2023-03-02T21:27:56.600Z,22.48
2023-03-02T21:30:34.005Z,24.10
2023-03-02T21:33:09.970Z,21.92
2023-03-02T21:35:41.813Z,21.25
2023-03-02T21:38:14.716Z,21.30
2023-03-02T21:40:48.756Z,22.30
2023-03-02T21:43:20.633Z,22.50
2023-03-02T21:45:52.394Z,20.80
2023-03-02T21:48:28.216Z,22.23
2023-03-02T21:50:59.939Z,21.73
2023-03-02T21:53:31.776Z,22.98
2023-03-02T21:56:03.722Z,21.70
2023-03-02T21:58:36.035Z,21.10
2023-03-02T22:01:08.907Z,22.83
2023-03-02T22:03:43.416Z,21.45
2023-03-02T22:06:23.277Z,22.38
2023-03-02T22:08:55.868Z,23.25
2023-03-02T22:11:35.467Z,21.42
2023-03-02T22:14:17.805Z,22.95
2023-03-02T22:16:52.071Z,21.63
2023-03-02T22:19:31.220Z,22.23
2023-03-02T22:22:03.345Z,22.75
2023-03-02T22:24:36.336Z,22.95
2023-03-02T22:27:26.885Z,23.67
2023-03-02T22:30:00.102Z,23.80
2023-03-02T22:32:37.237Z,24.05
2023-03-02T22:35:27.618Z,24.75
2023-03-02T22:38:11.781Z,22.95
2023-03-02T22:40:46.368Z,23.23
2023-03-02T22:43:29.912Z,24.10
2023-03-02T22:46:21.664Z,23.63
2023-03-02T22:48:54.454Z,23.40
2023-03-02T22:51:30.954Z,24.00
2023-03-02T22:54:20.006Z,24.63
2023-03-02T22:56:53.456Z,24.10
2023-03-02T22:59:36.327Z,24.58
2023-03-02T23:02:18.224Z,25.27
2023-03-02T23:04:50.458Z,23.52
2023-03-02T23:07:22.425Z,25.60
2023-03-02T23:09:54.390Z,24.27
2023-03-02T23:12:29.204Z,26.27
2023-03-02T23:17:39.832Z,25.17
2023-03-02T23:20:14.661Z,24.25
2023-03-02T23:22:46.454Z,24.92
2023-03-02T23:25:21.865Z,23.95
2023-03-02T23:27:53.608Z,24.35
2023-03-02T23:30:25.404Z,22.88
2023-03-02T23:32:57.177Z,25.92
2023-03-02T23:35:29.439Z,23.73
2023-03-02T23:38:01.495Z,25.63
2023-03-02T23:40:33.868Z,25.20
2023-03-02T23:43:05.843Z,24.50
2023-03-02T23:45:39.166Z,24.35
2023-03-02T23:48:11.119Z,24.17
2023-03-02T23:50:43.368Z,24.52
2023-03-02T23:53:15.099Z,24.13
2023-03-02T23:55:54.763Z,23.63
2023-03-02T23:58:26.494Z,25.05
